createdAt,value
2022-10-09T00:01:23.703Z,98455.38
2022-10-09T00:04:26.620Z,98452.28
2022-10-09T00:07:29.622Z,98456.94
2022-10-09T00:10:34.123Z,98468.22
2022-10-09T00:13:37.961Z,98477.03
2022-10-09T00:16:40.960Z,98478.81
2022-10-09T00:19:44.110Z,98484.25
2022-10-09T00:22:47.262Z,98493.94
2022-10-09T00:25:56.431Z,98500.56
2022-10-09T00:28:59.726Z,98499.50
2022-10-09T00:32:02.676Z,98501.00
2022-10-09T00:35:06.322Z,98499.16
2022-10-09T00:38:09.899Z,98500.81
2022-10-09T00:41:17.737Z,98492.50
2022-10-09T00:44:50.255Z,98497.47
2022-10-09T00:47:55.474Z,98498.69
2022-10-09T00:51:02.243Z,98487.06
2022-10-09T00:54:08.690Z,98488.31
2022-10-09T00:57:13.316Z,98480.91
2022-10-09T01:00:16.841Z,98484.69
2022-10-09T01:03:19.958Z,98483.81
2022-10-09T01:06:32.265Z,98476.50
2022-10-09T01:09:41.270Z,98483.03
2022-10-09T01:12:53.468Z,98487.66
2022-10-09T01:15:59.781Z,98488.13
2022-10-09T01:19:12.133Z,98489.34
2022-10-09T01:22:32.129Z,98496.31
2022-10-09T01:25:37.926Z,98488.84
2022-10-09T01:28:44.684Z,98487.88
2022-10-09T01:31:50.400Z,98486.00
2022-10-09T01:34:54.592Z,98488.38
2022-10-09T01:37:58.411Z,98483.31
2022-10-09T01:41:05.633Z,98484.34
2022-10-09T01:44:18.668Z,98483.03
2022-10-09T01:47:23.102Z,98478.06
2022-10-09T01:50:31.933Z,98485.56
2022-10-09T01:53:37.761Z,98481.50
2022-10-09T01:56:40.953Z,98484.97
2022-10-09T01:59:48.611Z,98482.00
2022-10-09T02:02:54.014Z,98483.66
2022-10-09T02:05:58.788Z,98483.66
2022-10-09T02:09:05.244Z,98486.97
2022-10-09T02:12:11.253Z,98488.88
2022-10-09T02:15:16.252Z,98495.75
2022-10-09T02:18:26.850Z,98498.00
2022-10-09T02:21:39.232Z,98499.88
2022-10-09T02:24:43.432Z,98500.00
2022-10-09T02:27:46.890Z,98502.63
2022-10-09T02:30:57.786Z,98506.88
2022-10-09T02:34:02.444Z,98527.06
2022-10-09T02:37:06.316Z,98530.63
2022-10-09T02:40:10.949Z,98536.19
2022-10-09T02:43:14.004Z,98535.56
2022-10-09T02:46:18.733Z,98541.25
2022-10-09T02:49:21.999Z,98544.00
2022-10-09T02:52:24.939Z,98547.22
2022-10-09T02:55:28.230Z,98551.00
2022-10-09T02:58:32.117Z,98548.88
2022-10-09T03:01:36.829Z,98549.81
2022-10-09T03:04:39.901Z,98556.81
2022-10-09T03:07:50.287Z,98557.66
2022-10-09T03:10:53.308Z,98554.22
2022-10-09T03:13:56.570Z,98564.78
2022-10-09T03:17:00.902Z,98565.75
2022-10-09T03:20:03.942Z,98576.47
2022-10-09T03:23:07.104Z,98570.13
2022-10-09T03:26:12.048Z,98555.16
2022-10-09T03:29:15.041Z,98567.00
2022-10-09T03:32:19.467Z,98561.97
2022-10-09T03:35:22.649Z,98557.94
2022-10-09T03:38:25.853Z,98557.28
2022-10-09T03:41:28.810Z,98552.38
2022-10-09T03:44:31.746Z,98556.50
2022-10-09T03:47:36.076Z,98558.03
2022-10-09T03:50:39.747Z,98558.94
2022-10-09T03:53:42.830Z,98549.13
2022-10-09T03:56:45.869Z,98550.78
2022-10-09T03:59:48.846Z,98551.19
2022-10-09T04:02:53.498Z,98553.53
2022-10-09T04:05:56.766Z,98552.25
2022-10-09T04:09:01.253Z,98561.34
2022-10-09T04:12:04.227Z,98566.41
2022-10-09T04:15:08.141Z,98579.47
2022-10-09T04:18:12.522Z,98583.63
2022-10-09T04:21:15.613Z,98586.31
2022-10-09T04:24:18.885Z,98595.13
2022-10-09T04:27:21.889Z,98603.66
2022-10-09T04:30:25.060Z,98604.22
2022-10-09T04:33:29.758Z,98627.72
2022-10-09T04:36:32.866Z,98630.56
2022-10-09T04:39:35.953Z,98641.50
2022-10-09T04:42:39.244Z,98653.00
2022-10-09T04:45:42.326Z,98670.44
2022-10-09T04:48:47.579Z,98668.53
2022-10-09T04:51:50.759Z,98676.13
2022-10-09T04:54:53.848Z,98678.63
2022-10-09T04:57:56.867Z,98687.28
2022-10-09T05:01:00.038Z,98698.66
2022-10-09T05:04:04.449Z,98700.25
2022-10-09T05:07:07.486Z,98708.94
2022-10-09T05:10:10.799Z,98712.69
2022-10-09T05:13:13.842Z,98725.25
2022-10-09T05:16:18.541Z,98725.69
2022-10-09T05:19:23.087Z,98726.91
2022-10-09T05:22:26.282Z,98726.53
2022-10-09T05:25:29.532Z,98726.69
2022-10-09T05:28:33.110Z,98737.34
2022-10-09T05:31:37.591Z,98740.28
2022-10-09T05:34:41.983Z,98739.94
2022-10-09T05:37:45.662Z,98749.00
2022-10-09T05:40:52.951Z,98753.75
2022-10-09T05:43:56.364Z,98755.19
2022-10-09T05:46:59.483Z,98756.59
2022-10-09T05:50:03.915Z,98757.94
2022-10-09T05:53:06.943Z,98759.31
2022-10-09T05:56:15.428Z,98761.16
2022-10-09T05:59:20.335Z,98766.13
2022-10-09T06:02:23.472Z,98768.50
2022-10-09T06:05:27.913Z,98779.13
2022-10-09T06:08:34.079Z,98778.19
2022-10-09T06:11:39.331Z,98777.56
2022-10-09T06:14:42.389Z,98786.31
2022-10-09T06:17:45.841Z,98795.50
2022-10-09T06:20:57.140Z,98788.41
2022-10-09T06:24:02.583Z,98800.28
2022-10-09T06:27:05.577Z,98805.06
2022-10-09T06:30:09.782Z,98807.94
2022-10-09T06:33:12.743Z,98809.31
2022-10-09T06:36:19.101Z,98815.25
2022-10-09T06:39:22.657Z,98823.03
2022-10-09T06:42:25.760Z,98824.22
2022-10-09T06:45:38.558Z,98828.94
2022-10-09T06:48:42.601Z,98825.16
2022-10-09T06:51:47.343Z,98822.31
2022-10-09T06:54:50.304Z,98830.19
2022-10-09T06:57:53.268Z,98826.06
2022-10-09T07:01:11.045Z,98830.84
2022-10-09T07:04:17.777Z,98829.06
2022-10-09T07:07:22.130Z,98822.66
2022-10-09T07:10:25.481Z,98832.44
2022-10-09T07:13:31.347Z,98836.63
2022-10-09T07:16:37.194Z,98842.34
2022-10-09T07:19:41.692Z,98849.72
2022-10-09T07:22:46.454Z,98853.91
2022-10-09T07:25:50.456Z,98859.41
2022-10-09T07:28:54.231Z,98864.63
2022-10-09T07:31:57.167Z,98865.75
2022-10-09T07:35:00.107Z,98867.25
2022-10-09T07:38:04.914Z,98875.50
2022-10-09T07:41:11.037Z,98877.97
2022-10-09T07:44:14.188Z,98870.84
2022-10-09T07:47:17.453Z,98882.47
2022-10-09T07:50:20.434Z,98884.84
2022-10-09T07:53:24.841Z,98891.41
2022-10-09T07:56:30.264Z,98891.00
2022-10-09T07:59:33.292Z,98892.63
2022-10-09T08:02:36.322Z,98890.09
2022-10-09T08:05:39.371Z,98896.41
2022-10-09T08:08:44.610Z,98904.44
2022-10-09T08:11:47.575Z,98897.66
2022-10-09T08:14:50.599Z,98900.53
2022-10-09T08:17:54.025Z,98891.28
2022-10-09T08:21:00.532Z,98901.59
2022-10-09T08:24:05.085Z,98896.00
2022-10-09T08:27:08.049Z,98890.97
2022-10-09T08:30:11.539Z,98874.19
2022-10-09T08:33:14.717Z,98875.31
2022-10-09T08:36:17.678Z,98860.44
2022-10-09T08:39:22.055Z,98854.72
2022-10-09T08:42:32.693Z,98848.66
2022-10-09T08:45:36.577Z,98854.53
2022-10-09T08:48:45.406Z,98853.44
2022-10-09T08:51:48.416Z,98854.00
2022-10-09T08:54:55.178Z,98841.69
2022-10-09T08:58:04.549Z,98836.69
2022-10-09T09:01:18.055Z,98829.63
2022-10-09T09:04:34.461Z,98812.59
2022-10-09T09:07:45.309Z,98788.31
2022-10-09T09:10:57.352Z,98750.19
2022-10-09T09:14:12.239Z,98706.28
2022-10-09T09:17:23.932Z,98673.19
2022-10-09T09:20:32.084Z,98617.56
2022-10-09T09:23:39.895Z,98548.84
2022-10-09T09:26:46.599Z,98501.41
2022-10-09T09:29:58.279Z,98473.53
2022-10-09T09:33:09.912Z,98447.22
2022-10-09T09:36:21.929Z,98406.13
2022-10-09T09:42:56.731Z,98354.28
2022-10-09T09:46:01.815Z,98328.72
2022-10-09T09:49:09.225Z,98320.31
2022-10-09T09:52:14.199Z,98316.41
2022-10-09T09:55:27.737Z,98308.47
2022-10-09T09:58:36.520Z,98320.34
2022-10-09T10:01:39.564Z,98317.06
2022-10-09T10:04:51.859Z,98313.56
2022-10-09T10:07:57.773Z,98312.88
2022-10-09T10:11:02.664Z,98316.34
2022-10-09T10:14:14.975Z,98334.16
2022-10-09T10:17:27.554Z,98331.03
2022-10-09T10:20:33.345Z,98313.16
2022-10-09T10:23:40.918Z,98316.75
2022-10-09T10:26:49.237Z,98316.56
2022-10-09T10:29:58.245Z,98321.47
2022-10-09T10:33:07.237Z,98318.66
2022-10-09T10:36:11.261Z,98317.84
2022-10-09T10:39:23.303Z,98323.75
2022-10-09T10:42:36.058Z,98314.47
2022-10-09T10:45:50.700Z,98311.63
2022-10-09T10:48:54.332Z,98311.28
2022-10-09T10:52:21.851Z,98309.81
2022-10-09T10:55:36.324Z,98309.50
2022-10-09T10:58:46.921Z,98296.19
2022-10-09T11:02:00.745Z,98297.47
2022-10-09T11:05:16.598Z,98290.81
2022-10-09T11:08:34.463Z,98300.31
2022-10-09T11:11:43.611Z,98299.31
2022-10-09T11:14:57.473Z,98292.97
2022-10-09T11:18:18.567Z,98281.72
2022-10-09T11:21:41.725Z,98279.63
2022-10-09T11:24:59.395Z,98276.00
2022-10-09T11:28:05.877Z,98280.72
2022-10-09T11:31:14.812Z,98282.09
2022-10-09T11:34:26.202Z,98283.28
2022-10-09T11:37:35.063Z,98274.25
2022-10-09T11:40:42.585Z,98275.03
2022-10-09T11:43:59.262Z,98278.88
2022-10-09T11:47:10.629Z,98286.38
2022-10-09T11:50:36.059Z,98281.56
2022-10-09T11:53:40.250Z,98274.59
2022-10-09T11:56:54.886Z,98262.88
2022-10-09T12:00:07.716Z,98262.06
2022-10-09T12:03:26.445Z,98258.69
2022-10-09T12:06:31.482Z,98245.81
2022-10-09T12:09:39.613Z,98244.47
2022-10-09T12:12:44.111Z,98241.84
2022-10-09T12:15:56.105Z,98243.94
2022-10-09T12:19:01.729Z,98228.47
2022-10-09T12:22:08.839Z,98230.22
2022-10-09T12:25:18.424Z,98229.44
2022-10-09T12:28:29.461Z,98227.75
2022-10-09T12:31:36.647Z,98225.09
2022-10-09T12:34:46.451Z,98221.91
2022-10-09T12:37:50.770Z,98210.13
2022-10-09T12:40:55.954Z,98208.47
2022-10-09T12:44:00.308Z,98193.75
2022-10-09T12:47:06.645Z,98192.28
2022-10-09T12:50:23.288Z,98187.13
2022-10-09T12:53:30.067Z,98176.53
2022-10-09T12:56:35.945Z,98178.75
2022-10-09T12:59:39.135Z,98186.22
2022-10-09T13:02:42.227Z,98183.94
2022-10-09T13:05:46.710Z,98171.97
2022-10-09T13:08:57.701Z,98173.84
2022-10-09T13:12:05.801Z,98163.56
2022-10-09T13:15:30.758Z,98165.75
2022-10-09T13:18:35.542Z,98162.47
2022-10-09T13:21:38.496Z,98159.06
2022-10-09T13:24:43.369Z,98157.88
2022-10-09T13:27:46.757Z,98158.50
2022-10-09T13:30:50.302Z,98148.75
2022-10-09T13:33:53.612Z,98138.38
2022-10-09T13:36:57.192Z,98139.72
2022-10-09T13:40:01.852Z,98142.19
2022-10-09T13:43:05.797Z,98134.84
2022-10-09T13:46:08.992Z,98135.88
2022-10-09T13:49:11.912Z,98129.63
2022-10-09T13:52:14.759Z,98128.44
2022-10-09T13:55:19.265Z,98134.41
2022-10-09T13:58:22.906Z,98136.78
2022-10-09T14:01:25.977Z,98123.75
2022-10-09T14:04:29.688Z,98140.03
2022-10-09T14:07:32.753Z,98116.78
2022-10-09T14:10:37.168Z,98121.19
2022-10-09T14:13:40.209Z,98129.63
2022-10-09T14:16:43.173Z,98119.41
2022-10-09T14:19:46.112Z,98115.75
2022-10-09T14:22:49.291Z,98109.63
2022-10-09T14:25:53.905Z,98108.81
2022-10-09T14:29:00.201Z,98105.16
2022-10-09T14:32:03.190Z,98110.16
2022-10-09T14:35:07.033Z,98098.22
2022-10-09T14:38:10.151Z,98094.78
2022-10-09T14:41:18.009Z,98093.63
2022-10-09T14:44:21.411Z,98085.53
2022-10-09T14:47:24.562Z,98083.94
2022-10-09T14:50:27.595Z,98086.16
2022-10-09T14:53:30.724Z,98087.06
2022-10-09T14:56:35.683Z,98085.41
2022-10-09T14:59:38.706Z,98075.16
2022-10-09T15:05:44.491Z,98061.44
2022-10-09T15:08:47.362Z,98070.56
2022-10-09T15:11:51.768Z,98067.00
2022-10-09T15:14:54.624Z,98071.38
2022-10-09T15:17:57.569Z,98066.84
2022-10-09T15:21:00.835Z,98065.22
2022-10-09T15:24:05.755Z,98057.44
2022-10-09T15:27:10.617Z,98053.06
2022-10-09T15:30:14.476Z,98054.81
2022-10-09T15:33:17.672Z,98044.13
2022-10-09T15:36:20.970Z,98048.97
2022-10-09T15:39:24.807Z,98046.94
2022-10-09T15:42:30.761Z,98036.66
2022-10-09T15:45:35.642Z,98031.53
2022-10-09T15:48:41.710Z,98029.34
2022-10-09T15:51:46.280Z,98030.34
2022-10-09T15:54:52.238Z,98028.06
2022-10-09T15:57:58.428Z,98021.44
2022-10-09T16:01:05.057Z,98014.88
2022-10-09T16:04:09.274Z,98019.97
2022-10-09T16:07:13.817Z,98016.09
2022-10-09T16:10:18.362Z,98013.16
2022-10-09T16:13:27.969Z,98010.13
2022-10-09T16:16:31.204Z,98003.34
2022-10-09T16:19:34.817Z,98008.16
2022-10-09T16:22:39.840Z,98000.91
2022-10-09T16:25:43.936Z,98005.06
2022-10-09T16:28:49.431Z,97997.53
2022-10-09T16:31:56.898Z,97990.84
2022-10-09T16:35:00.543Z,97992.94
2022-10-09T16:38:05.785Z,97994.66
2022-10-09T16:41:11.709Z,97994.53
2022-10-09T16:44:32.397Z,97994.41
2022-10-09T16:47:36.734Z,97992.81
2022-10-09T16:50:46.428Z,97996.00
2022-10-09T16:53:54.983Z,97987.28
2022-10-09T16:56:58.738Z,97977.69
2022-10-09T17:00:05.828Z,97976.75
2022-10-09T17:03:10.070Z,97977.41
2022-10-09T17:06:15.839Z,97974.50
2022-10-09T17:09:19.182Z,97973.50
2022-10-09T17:12:25.774Z,97968.28
2022-10-09T17:15:32.093Z,97968.91
2022-10-09T17:18:38.594Z,97959.06
2022-10-09T17:21:41.559Z,97961.72
2022-10-09T17:24:46.105Z,97952.22
2022-10-09T17:27:50.546Z,97953.28
2022-10-09T17:30:55.114Z,97943.75
2022-10-09T17:34:00.949Z,97940.28
2022-10-09T17:37:04.526Z,97933.53
2022-10-09T17:40:08.289Z,97938.16
2022-10-09T17:43:12.206Z,97939.16
2022-10-09T17:46:19.219Z,97936.44
2022-10-09T17:49:22.990Z,97931.31
2022-10-09T17:52:26.066Z,97931.81
2022-10-09T17:55:30.512Z,97925.41
2022-10-09T17:58:47.902Z,97921.63
2022-10-09T18:01:54.930Z,97922.56
2022-10-09T18:04:59.978Z,97929.69
2022-10-09T18:11:59.100Z,97917.69
2022-10-09T18:15:05.392Z,97910.25
2022-10-09T18:18:12.395Z,97905.81
2022-10-09T18:21:19.030Z,97901.91
2022-10-09T18:24:29.807Z,97900.03
2022-10-09T18:27:42.314Z,97894.78
2022-10-09T18:30:55.572Z,97896.38
2022-10-09T18:34:58.923Z,97880.94
2022-10-09T18:38:05.339Z,97867.44
2022-10-09T18:41:42.915Z,97864.84
2022-10-09T18:44:46.816Z,97876.63
2022-10-09T18:47:52.234Z,97863.78
2022-10-09T18:51:09.564Z,97864.41
2022-10-09T18:54:18.492Z,97853.59
2022-10-09T19:01:10.130Z,97851.47
2022-10-09T19:04:23.854Z,97845.25
2022-10-09T19:07:34.046Z,97845.72
2022-10-09T19:10:42.433Z,97842.63
2022-10-09T19:13:49.655Z,97839.97
2022-10-09T19:16:54.849Z,97818.97
2022-10-09T19:20:03.868Z,97819.03
2022-10-09T19:23:09.789Z,97811.47
2022-10-09T19:26:13.857Z,97795.44
2022-10-09T19:29:17.952Z,97799.03
2022-10-09T19:32:24.902Z,97787.38
2022-10-09T19:36:15.468Z,97786.53
2022-10-09T19:39:34.313Z,97771.53
2022-10-09T19:42:41.768Z,97779.78
2022-10-09T19:46:22.797Z,97762.09
2022-10-09T20:00:55.805Z,97739.94
2022-10-09T20:04:01.349Z,97735.66
2022-10-09T20:07:09.045Z,97737.84
2022-10-09T20:10:17.189Z,97734.53
2022-10-09T20:13:27.651Z,97723.72
2022-10-09T20:16:42.121Z,97723.13
2022-10-09T20:19:52.151Z,97711.06
2022-10-09T20:22:59.789Z,97703.31
2022-10-09T20:26:06.227Z,97701.81
2022-10-09T20:29:11.274Z,97689.03
2022-10-09T20:32:14.969Z,97684.63
2022-10-09T20:35:18.175Z,97683.72
2022-10-09T20:38:29.410Z,97676.50
2022-10-09T20:41:38.744Z,97671.69
2022-10-09T20:44:44.568Z,97657.56
2022-10-09T20:47:47.668Z,97669.50
2022-10-09T20:50:51.469Z,97660.22
2022-10-09T20:53:56.239Z,97661.84
2022-10-09T20:56:59.923Z,97656.47
2022-10-09T21:00:22.244Z,97651.88
2022-10-09T21:03:35.285Z,97645.53
2022-10-09T21:06:40.565Z,97653.97
2022-10-09T21:09:49.633Z,97649.34
2022-10-09T21:13:20.266Z,97648.53
2022-10-09T21:17:30.623Z,97647.56
2022-10-09T21:20:40.398Z,97647.72
2022-10-09T21:23:44.306Z,97663.91
2022-10-09T21:26:47.965Z,97654.84
2022-10-09T21:29:52.933Z,97657.22
2022-10-09T21:33:13.298Z,97656.34
2022-10-09T21:36:27.199Z,97660.56
2022-10-09T21:39:30.247Z,97666.03
2022-10-09T21:42:33.436Z,97673.53
2022-10-09T21:45:36.387Z,97675.56
2022-10-09T21:48:41.136Z,97674.06
2022-10-09T21:51:44.377Z,97685.75
2022-10-09T21:54:47.637Z,97690.38
2022-10-09T21:57:51.150Z,97690.03
2022-10-09T22:00:59.827Z,97695.44
2022-10-09T22:04:08.044Z,97696.22
2022-10-09T22:07:11.141Z,97693.13
2022-10-09T22:10:14.237Z,97688.91
2022-10-09T22:13:17.515Z,97691.66
2022-10-09T22:16:20.707Z,97691.66
2022-10-09T22:19:26.114Z,97691.81
2022-10-09T22:22:29.269Z,97696.91
2022-10-09T22:25:32.363Z,97691.72
2022-10-09T22:28:36.822Z,97693.47
2022-10-09T22:31:43.944Z,97701.88
2022-10-09T22:34:52.099Z,97703.50
2022-10-09T22:37:55.209Z,97700.56
2022-10-09T22:41:13.999Z,97702.16
2022-10-09T22:44:27.588Z,97688.66
2022-10-09T22:47:35.899Z,97686.59
2022-10-09T22:50:48.886Z,97671.84
2022-10-09T22:54:00.943Z,97659.63
2022-10-09T22:57:15.949Z,97649.78
2022-10-09T23:00:25.746Z,97645.34
2022-10-09T23:03:28.944Z,97641.53
2022-10-09T23:06:34.842Z,97638.91
2022-10-09T23:09:37.806Z,97631.97
2022-10-09T23:12:41.137Z,97624.72
2022-10-09T23:15:44.272Z,97619.66
2022-10-09T23:18:47.585Z,97623.31
2022-10-09T23:21:52.502Z,97615.31
2022-10-09T23:24:55.559Z,97611.69
2022-10-09T23:27:58.908Z,97608.56
2022-10-09T23:31:04.658Z,97605.28
2022-10-09T23:34:08.187Z,97606.59
2022-10-09T23:37:12.611Z,97603.06
2022-10-09T23:40:16.162Z,97596.16
2022-10-09T23:43:19.469Z,97597.50
2022-10-09T23:46:24.270Z,97581.13
2022-10-09T23:49:27.421Z,97572.69
2022-10-09T23:52:33.404Z,97559.22
2022-10-09T23:55:36.892Z,97556.06
2022-10-09T23:58:40.046Z,97545.53
